sensor_id;sensor_type;location;lat;lon;timestamp;P1;durP1;ratioP1;P2;durP2;ratioP2
5345;SDS011;2695;49.444;11.054;2023-05-07T00:01:16;2.53;;;2.20;;
5345;SDS011;2695;49.444;11.054;2023-05-07T00:03:45;3.50;;;2.10;;
5345;SDS011;2695;49.444;11.054;2023-05-07T00:06:14;2.50;;;2.30;;
5345;SDS011;2695;49.444;11.054;2023-05-07T00:08:42;2.67;;;2.17;;
5345;SDS011;2695;49.444;11.054;2023-05-07T00:11:10;3.33;;;2.50;;
5345;SDS011;2695;49.444;11.054;2023-05-07T00:13:38;2.80;;;2.10;;
5345;SDS011;2695;49.444;11.054;2023-05-07T00:16:06;3.00;;;2.03;;
5345;SDS011;2695;49.444;11.054;2023-05-07T00:18:36;4.30;;;2.30;;
5345;SDS011;2695;49.444;11.054;2023-05-07T00:21:04;4.10;;;2.30;;
5345;SDS011;2695;49.444;11.054;2023-05-07T00:23:32;4.40;;;2.20;;
5345;SDS011;2695;49.444;11.054;2023-05-07T00:26:00;5.73;;;3.00;;
5345;SDS011;2695;49.444;11.054;2023-05-07T00:28:28;3.63;;;2.33;;
5345;SDS011;2695;49.444;11.054;2023-05-07T00:30:56;3.73;;;2.50;;
5345;SDS011;2695;49.444;11.054;2023-05-07T00:33:24;3.13;;;2.27;;
5345;SDS011;2695;49.444;11.054;2023-05-07T00:35:54;4.00;;;2.17;;
5345;SDS011;2695;49.444;11.054;2023-05-07T00:38:22;5.93;;;2.40;;
5345;SDS011;2695;49.444;11.054;2023-05-07T00:40:50;3.10;;;2.47;;
5345;SDS011;2695;49.444;11.054;2023-05-07T00:43:18;2.77;;;2.27;;
5345;SDS011;2695;49.444;11.054;2023-05-07T00:45:46;3.57;;;2.67;;
5345;SDS011;2695;49.444;11.054;2023-05-07T00:48:15;4.67;;;2.50;;
5345;SDS011;2695;49.444;11.054;2023-05-07T00:50:43;2.57;;;2.10;;
5345;SDS011;2695;49.444;11.054;2023-05-07T00:53:14;3.87;;;2.10;;
5345;SDS011;2695;49.444;11.054;2023-05-07T00:55:42;2.53;;;2.33;;
5345;SDS011;2695;49.444;11.054;2023-05-07T00:58:10;2.23;;;2.03;;
5345;SDS011;2695;49.444;11.054;2023-05-07T01:00:38;4.37;;;2.17;;
5345;SDS011;2695;49.444;11.054;2023-05-07T01:03:06;3.67;;;2.10;;
5345;SDS011;2695;49.444;11.054;2023-05-07T01:05:35;5.93;;;2.50;;
5345;SDS011;2695;49.444;11.054;2023-05-07T01:08:03;4.23;;;2.40;;
5345;SDS011;2695;49.444;11.054;2023-05-07T01:10:33;2.97;;;2.23;;
5345;SDS011;2695;49.444;11.054;2023-05-07T01:13:01;3.17;;;2.83;;
5345;SDS011;2695;49.444;11.054;2023-05-07T01:15:30;3.23;;;2.20;;
5345;SDS011;2695;49.444;11.054;2023-05-07T01:17:58;2.40;;;2.20;;
5345;SDS011;2695;49.444;11.054;2023-05-07T01:20:26;2.17;;;1.97;;
5345;SDS011;2695;49.444;11.054;2023-05-07T01:22:57;5.73;;;1.97;;
5345;SDS011;2695;49.444;11.054;2023-05-07T01:25:25;2.40;;;2.20;;
5345;SDS011;2695;49.444;11.054;2023-05-07T01:27:53;3.00;;;1.63;;
5345;SDS011;2695;49.444;11.054;2023-05-07T01:30:21;4.30;;;2.20;;
5345;SDS011;2695;49.444;11.054;2023-05-07T01:32:50;2.53;;;2.10;;
5345;SDS011;2695;49.444;11.054;2023-05-07T01:35:24;3.17;;;1.90;;
5345;SDS011;2695;49.444;11.054;2023-05-07T01:37:56;2.70;;;2.13;;
5345;SDS011;2695;49.444;11.054;2023-05-07T01:40:24;1.97;;;1.77;;
5345;SDS011;2695;49.444;11.054;2023-05-07T01:42:54;2.03;;;1.83;;
5345;SDS011;2695;49.444;11.054;2023-05-07T01:45:22;2.63;;;2.27;;
5345;SDS011;2695;49.444;11.054;2023-05-07T01:47:50;3.80;;;2.53;;
5345;SDS011;2695;49.444;11.054;2023-05-07T01:50:20;2.60;;;2.40;;
5345;SDS011;2695;49.444;11.054;2023-05-07T01:52:49;3.87;;;2.17;;
5345;SDS011;2695;49.444;11.054;2023-05-07T01:55:19;3.57;;;2.50;;
5345;SDS011;2695;49.444;11.054;2023-05-07T01:57:47;2.53;;;2.03;;
5345;SDS011;2695;49.444;11.054;2023-05-07T02:00:15;2.37;;;2.17;;
5345;SDS011;2695;49.444;11.054;2023-05-07T02:02:45;2.50;;;2.30;;
5345;SDS011;2695;49.444;11.054;2023-05-07T02:05:13;2.67;;;2.17;;
5345;SDS011;2695;49.444;11.054;2023-05-07T02:07:41;6.53;;;2.20;;
5345;SDS011;2695;49.444;11.054;2023-05-07T02:10:10;2.57;;;2.37;;
5345;SDS011;2695;49.444;11.054;2023-05-07T02:12:39;2.77;;;2.23;;
5345;SDS011;2695;49.444;11.054;2023-05-07T02:15:09;2.60;;;2.20;;
5345;SDS011;2695;49.444;11.054;2023-05-07T02:17:39;2.70;;;2.27;;
5345;SDS011;2695;49.444;11.054;2023-05-07T02:20:25;3.23;;;2.60;;
5345;SDS011;2695;49.444;11.054;2023-05-07T02:22:53;4.70;;;2.50;;
5345;SDS011;2695;49.444;11.054;2023-05-07T02:25:21;3.20;;;2.30;;
5345;SDS011;2695;49.444;11.054;2023-05-07T02:27:50;3.10;;;2.80;;
5345;SDS011;2695;49.444;11.054;2023-05-07T02:30:19;4.17;;;3.13;;
5345;SDS011;2695;49.444;11.054;2023-05-07T02:32:47;4.50;;;2.73;;
5345;SDS011;2695;49.444;11.054;2023-05-07T02:35:16;4.80;;;2.77;;
5345;SDS011;2695;49.444;11.054;2023-05-07T02:37:44;3.97;;;2.63;;
5345;SDS011;2695;49.444;11.054;2023-05-07T02:40:12;3.43;;;3.10;;
5345;SDS011;2695;49.444;11.054;2023-05-07T02:42:40;4.13;;;3.10;;
5345;SDS011;2695;49.444;11.054;2023-05-07T02:45:10;4.23;;;2.80;;
5345;SDS011;2695;49.444;11.054;2023-05-07T02:47:38;2.90;;;2.60;;
5345;SDS011;2695;49.444;11.054;2023-05-07T02:50:07;3.40;;;2.97;;
5345;SDS011;2695;49.444;11.054;2023-05-07T02:52:35;5.30;;;2.73;;
5345;SDS011;2695;49.444;11.054;2023-05-07T02:55:03;4.33;;;3.00;;
5345;SDS011;2695;49.444;11.054;2023-05-07T02:57:32;3.70;;;3.10;;
5345;SDS011;2695;49.444;11.054;2023-05-07T03:00:06;3.23;;;2.73;;
5345;SDS011;2695;49.444;11.054;2023-05-07T03:02:39;4.90;;;3.30;;
5345;SDS011;2695;49.444;11.054;2023-05-07T03:05:07;5.83;;;3.50;;
5345;SDS011;2695;49.444;11.054;2023-05-07T03:07:35;3.80;;;2.90;;
5345;SDS011;2695;49.444;11.054;2023-05-07T03:10:04;3.20;;;2.90;;
5345;SDS011;2695;49.444;11.054;2023-05-07T03:12:32;3.70;;;2.90;;
5345;SDS011;2695;49.444;11.054;2023-05-07T03:15:01;4.57;;;3.70;;
5345;SDS011;2695;49.444;11.054;2023-05-07T03:17:30;3.83;;;3.43;;
5345;SDS011;2695;49.444;11.054;2023-05-07T03:19:58;4.27;;;3.30;;
5345;SDS011;2695;49.444;11.054;2023-05-07T03:22:26;6.13;;;3.33;;
5345;SDS011;2695;49.444;11.054;2023-05-07T03:24:54;3.93;;;3.63;;
5345;SDS011;2695;49.444;11.054;2023-05-07T03:27:22;5.60;;;3.70;;
5345;SDS011;2695;49.444;11.054;2023-05-07T03:29:50;6.70;;;3.80;;
5345;SDS011;2695;49.444;11.054;2023-05-07T03:32:18;6.10;;;4.27;;
5345;SDS011;2695;49.444;11.054;2023-05-07T03:34:47;4.60;;;4.17;;
5345;SDS011;2695;49.444;11.054;2023-05-07T03:37:15;8.03;;;4.27;;
5345;SDS011;2695;49.444;11.054;2023-05-07T03:39:43;9.63;;;4.40;;
5345;SDS011;2695;49.444;11.054;2023-05-07T03:42:11;5.70;;;4.20;;
5345;SDS011;2695;49.444;11.054;2023-05-07T03:44:39;3.33;;;3.00;;
5345;SDS011;2695;49.444;11.054;2023-05-07T03:47:07;4.77;;;4.23;;
5345;SDS011;2695;49.444;11.054;2023-05-07T03:49:36;5.47;;;3.60;;
5345;SDS011;2695;49.444;11.054;2023-05-07T03:52:06;4.47;;;3.93;;
5345;SDS011;2695;49.444;11.054;2023-05-07T03:54:34;5.43;;;3.63;;
5345;SDS011;2695;49.444;11.054;2023-05-07T03:57:02;4.93;;;3.83;;
5345;SDS011;2695;49.444;11.054;2023-05-07T03:59:30;4.50;;;3.53;;
5345;SDS011;2695;49.444;11.054;2023-05-07T04:01:58;7.90;;;4.20;;
5345;SDS011;2695;49.444;11.054;2023-05-07T04:04:30;6.47;;;3.83;;
5345;SDS011;2695;49.444;11.054;2023-05-07T04:06:59;4.90;;;4.30;;
5345;SDS011;2695;49.444;11.054;2023-05-07T04:09:29;4.40;;;4.00;;
5345;SDS011;2695;49.444;11.054;2023-05-07T04:11:57;4.37;;;3.90;;
5345;SDS011;2695;49.444;11.054;2023-05-07T04:14:25;4.53;;;3.73;;
5345;SDS011;2695;49.444;11.054;2023-05-07T04:16:53;8.90;;;4.17;;
5345;SDS011;2695;49.444;11.054;2023-05-07T04:19:21;4.77;;;4.03;;
5345;SDS011;2695;49.444;11.054;2023-05-07T04:21:49;3.97;;;3.60;;
5345;SDS011;2695;49.444;11.054;2023-05-07T04:24:17;5.73;;;4.00;;
5345;SDS011;2695;49.444;11.054;2023-05-07T04:26:47;4.40;;;4.00;;
5345;SDS011;2695;49.444;11.054;2023-05-07T04:29:15;4.00;;;3.67;;
5345;SDS011;2695;49.444;11.054;2023-05-07T04:31:43;4.50;;;4.07;;
5345;SDS011;2695;49.444;11.054;2023-05-07T04:34:12;9.00;;;3.90;;
5345;SDS011;2695;49.444;11.054;2023-05-07T04:36:41;4.10;;;3.70;;
5345;SDS011;2695;49.444;11.054;2023-05-07T04:39:10;5.00;;;4.33;;
5345;SDS011;2695;49.444;11.054;2023-05-07T04:41:38;6.20;;;4.17;;
5345;SDS011;2695;49.444;11.054;2023-05-07T04:44:08;6.77;;;4.93;;
5345;SDS011;2695;49.444;11.054;2023-05-07T04:46:37;4.90;;;4.40;;
5345;SDS011;2695;49.444;11.054;2023-05-07T04:49:05;6.40;;;4.70;;
5345;SDS011;2695;49.444;11.054;2023-05-07T04:51:34;7.43;;;4.20;;
5345;SDS011;2695;49.444;11.054;2023-05-07T04:54:02;5.60;;;5.00;;
5345;SDS011;2695;49.444;11.054;2023-05-07T04:56:30;4.87;;;4.20;;
5345;SDS011;2695;49.444;11.054;2023-05-07T04:58:58;8.20;;;5.43;;
5345;SDS011;2695;49.444;11.054;2023-05-07T05:01:27;4.93;;;4.43;;
5345;SDS011;2695;49.444;11.054;2023-05-07T05:03:55;6.00;;;4.50;;
5345;SDS011;2695;49.444;11.054;2023-05-07T05:06:24;6.80;;;4.90;;
5345;SDS011;2695;49.444;11.054;2023-05-07T05:08:52;5.47;;;4.70;;
5345;SDS011;2695;49.444;11.054;2023-05-07T05:11:19;4.87;;;4.13;;
5345;SDS011;2695;49.444;11.054;2023-05-07T05:13:47;6.70;;;4.80;;
5345;SDS011;2695;49.444;11.054;2023-05-07T05:16:16;5.50;;;5.00;;
5345;SDS011;2695;49.444;11.054;2023-05-07T05:18:45;6.53;;;5.20;;
5345;SDS011;2695;49.444;11.054;2023-05-07T05:21:13;7.67;;;5.13;;
5345;SDS011;2695;49.444;11.054;2023-05-07T05:23:41;6.20;;;4.60;;
5345;SDS011;2695;49.444;11.054;2023-05-07T05:26:09;5.47;;;4.67;;
5345;SDS011;2695;49.444;11.054;2023-05-07T05:28:37;9.97;;;6.00;;
5345;SDS011;2695;49.444;11.054;2023-05-07T05:31:05;6.07;;;5.13;;
5345;SDS011;2695;49.444;11.054;2023-05-07T05:33:33;6.50;;;4.90;;
5345;SDS011;2695;49.444;11.054;2023-05-07T05:36:03;6.57;;;5.40;;
5345;SDS011;2695;49.444;11.054;2023-05-07T05:38:31;6.23;;;5.10;;
5345;SDS011;2695;49.444;11.054;2023-05-07T05:41:00;12.10;;;5.20;;
5345;SDS011;2695;49.444;11.054;2023-05-07T05:43:28;5.90;;;4.83;;
5345;SDS011;2695;49.444;11.054;2023-05-07T05:45:56;6.10;;;4.83;;
5345;SDS011;2695;49.444;11.054;2023-05-07T05:48:25;5.73;;;5.00;;
5345;SDS011;2695;49.444;11.054;2023-05-07T05:50:53;7.77;;;5.47;;
5345;SDS011;2695;49.444;11.054;2023-05-07T05:53:22;6.10;;;5.27;;
5345;SDS011;2695;49.444;11.054;2023-05-07T05:55:50;8.00;;;5.43;;
5345;SDS011;2695;49.444;11.054;2023-05-07T05:58:19;11.80;;;5.83;;
5345;SDS011;2695;49.444;11.054;2023-05-07T06:00:47;7.80;;;5.70;;
5345;SDS011;2695;49.444;11.054;2023-05-07T06:03:20;6.93;;;6.23;;
5345;SDS011;2695;49.444;11.054;2023-05-07T06:05:49;6.73;;;5.50;;
5345;SDS011;2695;49.444;11.054;2023-05-07T06:08:16;7.77;;;6.20;;
5345;SDS011;2695;49.444;11.054;2023-05-07T06:10:46;7.60;;;5.77;;
5345;SDS011;2695;49.444;11.054;2023-05-07T06:13:14;7.20;;;5.87;;
5345;SDS011;2695;49.444;11.054;2023-05-07T06:15:42;7.43;;;5.77;;
5345;SDS011;2695;49.444;11.054;2023-05-07T06:18:10;6.53;;;5.00;;
5345;SDS011;2695;49.444;11.054;2023-05-07T06:20:38;10.87;;;5.80;;
5345;SDS011;2695;49.444;11.054;2023-05-07T06:23:06;9.73;;;6.43;;
5345;SDS011;2695;49.444;11.054;2023-05-07T06:25:34;7.77;;;6.00;;
5345;SDS011;2695;49.444;11.054;2023-05-07T06:28:03;8.50;;;6.63;;
5345;SDS011;2695;49.444;11.054;2023-05-07T06:30:31;10.00;;;6.00;;
5345;SDS011;2695;49.444;11.054;2023-05-07T06:32:59;7.97;;;5.73;;
5345;SDS011;2695;49.444;11.054;2023-05-07T06:35:27;16.50;;;5.83;;
5345;SDS011;2695;49.444;11.054;2023-05-07T06:37:55;7.37;;;5.13;;
5345;SDS011;2695;49.444;11.054;2023-05-07T06:40:23;6.50;;;5.63;;
5345;SDS011;2695;49.444;11.054;2023-05-07T06:42:51;11.63;;;5.77;;
5345;SDS011;2695;49.444;11.054;2023-05-07T06:45:21;6.67;;;5.60;;
5345;SDS011;2695;49.444;11.054;2023-05-07T06:47:49;8.60;;;5.60;;
5345;SDS011;2695;49.444;11.054;2023-05-07T06:50:18;9.50;;;5.60;;
5345;SDS011;2695;49.444;11.054;2023-05-07T06:52:46;9.80;;;5.40;;
5345;SDS011;2695;49.444;11.054;2023-05-07T06:55:14;5.70;;;5.10;;
5345;SDS011;2695;49.444;11.054;2023-05-07T06:57:42;5.60;;;5.10;;
5345;SDS011;2695;49.444;11.054;2023-05-07T07:00:11;15.50;;;5.90;;
5345;SDS011;2695;49.444;11.054;2023-05-07T07:02:41;7.43;;;5.43;;
5345;SDS011;2695;49.444;11.054;2023-05-07T07:05:09;6.90;;;4.93;;
5345;SDS011;2695;49.444;11.054;2023-05-07T07:07:37;6.40;;;4.90;;
5345;SDS011;2695;49.444;11.054;2023-05-07T07:10:06;6.30;;;4.90;;
5345;SDS011;2695;49.444;11.054;2023-05-07T07:12:35;7.10;;;5.23;;
5345;SDS011;2695;49.444;11.054;2023-05-07T07:15:03;5.83;;;5.03;;
5345;SDS011;2695;49.444;11.054;2023-05-07T07:17:32;9.50;;;5.17;;
5345;SDS011;2695;49.444;11.054;2023-05-07T07:20:02;6.50;;;5.30;;
5345;SDS011;2695;49.444;11.054;2023-05-07T07:22:30;7.05;;;4.20;;
5345;SDS011;2695;49.444;11.054;2023-05-07T07:24:58;5.70;;;4.88;;
5345;SDS011;2695;49.444;11.054;2023-05-07T07:27:26;4.80;;;4.30;;
5345;SDS011;2695;49.444;11.054;2023-05-07T07:29:54;7.00;;;4.40;;
5345;SDS011;2695;49.444;11.054;2023-05-07T07:32:22;6.82;;;4.95;;
5345;SDS011;2695;49.444;11.054;2023-05-07T07:34:50;5.15;;;4.65;;
5345;SDS011;2695;49.444;11.054;2023-05-07T07:37:19;4.95;;;4.40;;
5345;SDS011;2695;49.444;11.054;2023-05-07T07:39:47;7.60;;;4.47;;
5345;SDS011;2695;49.444;11.054;2023-05-07T07:42:15;7.88;;;4.65;;
5345;SDS011;2695;49.444;11.054;2023-05-07T07:44:44;6.45;;;4.88;;
5345;SDS011;2695;49.444;11.054;2023-05-07T07:47:12;5.53;;;4.75;;
5345;SDS011;2695;49.444;11.054;2023-05-07T07:49:40;6.45;;;5.05;;
5345;SDS011;2695;49.444;11.054;2023-05-07T07:52:08;6.70;;;4.95;;
5345;SDS011;2695;49.444;11.054;2023-05-07T07:54:37;5.15;;;4.47;;
5345;SDS011;2695;49.444;11.054;2023-05-07T07:57:05;5.15;;;4.07;;
5345;SDS011;2695;49.444;11.054;2023-05-07T07:59:33;6.35;;;4.78;;
5345;SDS011;2695;49.444;11.054;2023-05-07T08:02:01;5.20;;;4.70;;
5345;SDS011;2695;49.444;11.054;2023-05-07T08:04:29;8.88;;;4.75;;
5345;SDS011;2695;49.444;11.054;2023-05-07T08:06:59;6.18;;;4.82;;
5345;SDS011;2695;49.444;11.054;2023-05-07T08:09:27;5.35;;;4.63;;
5345;SDS011;2695;49.444;11.054;2023-05-07T08:11:57;6.00;;;4.97;;
5345;SDS011;2695;49.444;11.054;2023-05-07T08:14:25;6.28;;;4.75;;
5345;SDS011;2695;49.444;11.054;2023-05-07T08:16:54;6.28;;;4.03;;
5345;SDS011;2695;49.444;11.054;2023-05-07T08:19:22;5.95;;;4.28;;
5345;SDS011;2695;49.444;11.054;2023-05-07T08:21:50;5.05;;;4.53;;
5345;SDS011;2695;49.444;11.054;2023-05-07T08:24:18;8.13;;;4.68;;
5345;SDS011;2695;49.444;11.054;2023-05-07T08:26:47;5.70;;;4.40;;
5345;SDS011;2695;49.444;11.054;2023-05-07T08:29:17;5.03;;;4.53;;
5345;SDS011;2695;49.444;11.054;2023-05-07T08:31:45;4.10;;;3.67;;
5345;SDS011;2695;49.444;11.054;2023-05-07T08:34:13;4.80;;;4.40;;
5345;SDS011;2695;49.444;11.054;2023-05-07T08:36:41;5.50;;;4.70;;
5345;SDS011;2695;49.444;11.054;2023-05-07T08:39:09;5.18;;;4.20;;
5345;SDS011;2695;49.444;11.054;2023-05-07T08:41:38;5.07;;;4.20;;
5345;SDS011;2695;49.444;11.054;2023-05-07T08:44:07;4.38;;;3.97;;
5345;SDS011;2695;49.444;11.054;2023-05-07T08:46:41;4.90;;;4.10;;
5345;SDS011;2695;49.444;11.054;2023-05-07T08:49:09;4.25;;;3.63;;
5345;SDS011;2695;49.444;11.054;2023-05-07T08:51:38;5.30;;;3.90;;
5345;SDS011;2695;49.444;11.054;2023-05-07T08:54:06;5.40;;;3.58;;
5345;SDS011;2695;49.444;11.054;2023-05-07T08:56:36;4.22;;;3.83;;
5345;SDS011;2695;49.444;11.054;2023-05-07T08:59:06;5.65;;;4.40;;
5345;SDS011;2695;49.444;11.054;2023-05-07T09:01:33;3.78;;;3.47;;
5345;SDS011;2695;49.444;11.054;2023-05-07T09:04:03;4.28;;;3.88;;
5345;SDS011;2695;49.444;11.054;2023-05-07T09:06:33;9.18;;;3.90;;
5345;SDS011;2695;49.444;11.054;2023-05-07T09:09:01;3.50;;;3.20;;
5345;SDS011;2695;49.444;11.054;2023-05-07T09:11:31;3.58;;;3.10;;
5345;SDS011;2695;49.444;11.054;2023-05-07T09:13:59;4.20;;;3.17;;
5345;SDS011;2695;49.444;11.054;2023-05-07T09:16:29;5.05;;;3.20;;
5345;SDS011;2695;49.444;11.054;2023-05-07T09:18:58;7.55;;;3.00;;
5345;SDS011;2695;49.444;11.054;2023-05-07T09:21:28;3.15;;;2.85;;
5345;SDS011;2695;49.444;11.054;2023-05-07T09:23:57;3.97;;;3.30;;
5345;SDS011;2695;49.444;11.054;2023-05-07T09:26:25;3.13;;;2.72;;
5345;SDS011;2695;49.444;11.054;2023-05-07T09:28:54;9.85;;;3.55;;
5345;SDS011;2695;49.444;11.054;2023-05-07T09:31:22;4.35;;;2.70;;
5345;SDS011;2695;49.444;11.054;2023-05-07T09:33:52;4.32;;;3.00;;
5345;SDS011;2695;49.444;11.054;2023-05-07T09:36:22;4.85;;;3.60;;
5345;SDS011;2695;49.444;11.054;2023-05-07T09:38:51;3.95;;;3.00;;
5345;SDS011;2695;49.444;11.054;2023-05-07T09:41:19;5.43;;;3.22;;
5345;SDS011;2695;49.444;11.054;2023-05-07T09:43:47;8.52;;;3.95;;
5345;SDS011;2695;49.444;11.054;2023-05-07T09:46:23;3.60;;;3.30;;
5345;SDS011;2695;49.444;11.054;2023-05-07T09:48:55;6.15;;;3.53;;
5345;SDS011;2695;49.444;11.054;2023-05-07T09:51:25;3.88;;;3.50;;
5345;SDS011;2695;49.444;11.054;2023-05-07T09:53:58;5.13;;;3.92;;
5345;SDS011;2695;49.444;11.054;2023-05-07T09:56:29;3.70;;;3.30;;
5345;SDS011;2695;49.444;11.054;2023-05-07T09:58:58;5.57;;;3.90;;
5345;SDS011;2695;49.444;11.054;2023-05-07T10:01:28;3.55;;;3.25;;
5345;SDS011;2695;49.444;11.054;2023-05-07T10:03:58;4.05;;;3.45;;
5345;SDS011;2695;49.444;11.054;2023-05-07T10:06:27;4.25;;;3.85;;
5345;SDS011;2695;49.444;11.054;2023-05-07T10:08:56;3.40;;;3.10;;
5345;SDS011;2695;49.444;11.054;2023-05-07T10:11:26;6.00;;;3.80;;
5345;SDS011;2695;49.444;11.054;2023-05-07T10:13:55;4.95;;;3.53;;
5345;SDS011;2695;49.444;11.054;2023-05-07T10:16:24;3.38;;;3.08;;
5345;SDS011;2695;49.444;11.054;2023-05-07T10:18:54;3.83;;;3.00;;
5345;SDS011;2695;49.444;11.054;2023-05-07T10:21:23;2.42;;;2.17;;
5345;SDS011;2695;49.444;11.054;2023-05-07T10:23:53;4.78;;;3.20;;
5345;SDS011;2695;49.444;11.054;2023-05-07T10:26:28;4.97;;;3.65;;
5345;SDS011;2695;49.444;11.054;2023-05-07T10:29:04;6.60;;;4.00;;
5345;SDS011;2695;49.444;11.054;2023-05-07T10:31:42;6.55;;;4.00;;
5345;SDS011;2695;49.444;11.054;2023-05-07T10:34:17;4.22;;;3.72;;
5345;SDS011;2695;49.444;11.054;2023-05-07T10:36:49;3.95;;;3.55;;
5345;SDS011;2695;49.444;11.054;2023-05-07T10:39:20;4.00;;;3.58;;
5345;SDS011;2695;49.444;11.054;2023-05-07T10:41:50;5.18;;;2.95;;
5345;SDS011;2695;49.444;11.054;2023-05-07T10:44:25;3.45;;;2.70;;
5345;SDS011;2695;49.444;11.054;2023-05-07T10:47:07;3.78;;;3.42;;
5345;SDS011;2695;49.444;11.054;2023-05-07T10:49:36;4.15;;;3.22;;
5345;SDS011;2695;49.444;11.054;2023-05-07T10:52:24;3.78;;;2.90;;
5345;SDS011;2695;49.444;11.054;2023-05-07T10:57:52;2.72;;;2.53;;
5345;SDS011;2695;49.444;11.054;2023-05-07T11:03:10;7.50;;;3.70;;
5345;SDS011;2695;49.444;11.054;2023-05-07T11:05:39;6.15;;;4.30;;
5345;SDS011;2695;49.444;11.054;2023-05-07T11:08:08;3.97;;;3.67;;
5345;SDS011;2695;49.444;11.054;2023-05-07T11:10:51;5.47;;;3.92;;
5345;SDS011;2695;49.444;11.054;2023-05-07T11:16:16;4.60;;;3.60;;
5345;SDS011;2695;49.444;11.054;2023-05-07T11:18:46;3.20;;;2.90;;
5345;SDS011;2695;49.444;11.054;2023-05-07T11:24:02;8.00;;;3.85;;
5345;SDS011;2695;49.444;11.054;2023-05-07T11:26:42;4.07;;;3.60;;
5345;SDS011;2695;49.444;11.054;2023-05-07T11:29:12;4.88;;;3.80;;
5345;SDS011;2695;49.444;11.054;2023-05-07T11:31:47;5.40;;;3.33;;
5345;SDS011;2695;49.444;11.054;2023-05-07T11:34:20;4.32;;;3.40;;
5345;SDS011;2695;49.444;11.054;2023-05-07T11:36:49;4.20;;;3.33;;
5345;SDS011;2695;49.444;11.054;2023-05-07T11:39:25;3.08;;;2.78;;
5345;SDS011;2695;49.444;11.054;2023-05-07T11:41:55;3.40;;;3.00;;
5345;SDS011;2695;49.444;11.054;2023-05-07T11:44:24;7.85;;;2.78;;
5345;SDS011;2695;49.444;11.054;2023-05-07T11:46:52;3.25;;;2.95;;
5345;SDS011;2695;49.444;11.054;2023-05-07T11:49:20;4.93;;;3.20;;
5345;SDS011;2695;49.444;11.054;2023-05-07T11:51:52;4.95;;;2.53;;
5345;SDS011;2695;49.444;11.054;2023-05-07T11:54:21;3.45;;;3.05;;
5345;SDS011;2695;49.444;11.054;2023-05-07T11:56:49;2.90;;;2.60;;
5345;SDS011;2695;49.444;11.054;2023-05-07T11:59:19;3.75;;;2.92;;
5345;SDS011;2695;49.444;11.054;2023-05-07T12:01:47;4.47;;;2.67;;
5345;SDS011;2695;49.444;11.054;2023-05-07T12:04:18;6.68;;;2.55;;
5345;SDS011;2695;49.444;11.054;2023-05-07T12:06:48;5.50;;;2.60;;
5345;SDS011;2695;49.444;11.054;2023-05-07T12:09:17;2.80;;;2.60;;
5345;SDS011;2695;49.444;11.054;2023-05-07T12:11:45;4.38;;;2.60;;
5345;SDS011;2695;49.444;11.054;2023-05-07T12:14:14;2.72;;;2.53;;
5345;SDS011;2695;49.444;11.054;2023-05-07T12:16:44;2.60;;;2.40;;
5345;SDS011;2695;49.444;11.054;2023-05-07T12:19:13;3.45;;;2.90;;
5345;SDS011;2695;49.444;11.054;2023-05-07T12:21:41;3.53;;;2.42;;
5345;SDS011;2695;49.444;11.054;2023-05-07T12:24:09;2.80;;;2.45;;
5345;SDS011;2695;49.444;11.054;2023-05-07T12:26:38;2.50;;;2.30;;
5345;SDS011;2695;49.444;11.054;2023-05-07T12:29:07;2.75;;;2.47;;
5345;SDS011;2695;49.444;11.054;2023-05-07T12:31:35;3.67;;;2.60;;
5345;SDS011;2695;49.444;11.054;2023-05-07T12:34:05;2.78;;;2.55;;
5345;SDS011;2695;49.444;11.054;2023-05-07T12:36:36;7.22;;;2.45;;
5345;SDS011;2695;49.444;11.054;2023-05-07T12:39:05;3.90;;;2.83;;
5345;SDS011;2695;49.444;11.054;2023-05-07T12:41:52;7.05;;;3.08;;
5345;SDS011;2695;49.444;11.054;2023-05-07T12:44:21;6.97;;;3.55;;
5345;SDS011;2695;49.444;11.054;2023-05-07T12:46:50;6.53;;;4.00;;
5345;SDS011;2695;49.444;11.054;2023-05-07T12:49:20;3.42;;;3.03;;
5345;SDS011;2695;49.444;11.054;2023-05-07T12:51:50;4.88;;;3.63;;
5345;SDS011;2695;49.444;11.054;2023-05-07T12:54:28;6.50;;;3.20;;
5345;SDS011;2695;49.444;11.054;2023-05-07T12:57:00;3.75;;;2.95;;
5345;SDS011;2695;49.444;11.054;2023-05-07T12:59:33;3.65;;;3.35;;
5345;SDS011;2695;49.444;11.054;2023-05-07T13:02:01;3.88;;;3.17;;
5345;SDS011;2695;49.444;11.054;2023-05-07T13:04:31;4.00;;;3.00;;
5345;SDS011;2695;49.444;11.054;2023-05-07T13:07:00;3.80;;;3.40;;
5345;SDS011;2695;49.444;11.054;2023-05-07T13:09:29;4.35;;;2.90;;
5345;SDS011;2695;49.444;11.054;2023-05-07T13:11:58;3.65;;;2.78;;
5345;SDS011;2695;49.444;11.054;2023-05-07T13:14:27;3.65;;;3.28;;
5345;SDS011;2695;49.444;11.054;2023-05-07T13:16:55;5.00;;;3.10;;
5345;SDS011;2695;49.444;11.054;2023-05-07T13:19:24;4.93;;;2.88;;
5345;SDS011;2695;49.444;11.054;2023-05-07T13:21:55;4.63;;;3.13;;
5345;SDS011;2695;49.444;11.054;2023-05-07T13:24:25;3.05;;;2.70;;
5345;SDS011;2695;49.444;11.054;2023-05-07T13:26:53;4.88;;;2.80;;
5345;SDS011;2695;49.444;11.054;2023-05-07T13:29:23;3.17;;;2.78;;
5345;SDS011;2695;49.444;11.054;2023-05-07T13:31:56;3.50;;;3.20;;
5345;SDS011;2695;49.444;11.054;2023-05-07T13:34:24;4.53;;;3.30;;
5345;SDS011;2695;49.444;11.054;2023-05-07T13:36:52;2.75;;;2.35;;
5345;SDS011;2695;49.444;11.054;2023-05-07T13:39:22;3.10;;;2.85;;
5345;SDS011;2695;49.444;11.054;2023-05-07T13:41:50;3.90;;;3.60;;
5345;SDS011;2695;49.444;11.054;2023-05-07T13:44:18;3.38;;;2.83;;
5345;SDS011;2695;49.444;11.054;2023-05-07T13:46:47;5.63;;;4.07;;
5345;SDS011;2695;49.444;11.054;2023-05-07T13:49:15;4.53;;;2.63;;
5345;SDS011;2695;49.444;11.054;2023-05-07T13:51:43;3.55;;;3.13;;
5345;SDS011;2695;49.444;11.054;2023-05-07T13:54:11;4.70;;;3.47;;
5345;SDS011;2695;49.444;11.054;2023-05-07T13:56:40;4.90;;;3.28;;
5345;SDS011;2695;49.444;11.054;2023-05-07T13:59:08;3.70;;;2.90;;
5345;SDS011;2695;49.444;11.054;2023-05-07T14:01:36;4.05;;;3.17;;
5345;SDS011;2695;49.444;11.054;2023-05-07T14:04:05;3.60;;;3.30;;
5345;SDS011;2695;49.444;11.054;2023-05-07T14:06:34;4.40;;;3.20;;
5345;SDS011;2695;49.444;11.054;2023-05-07T14:09:02;3.57;;;3.27;;
5345;SDS011;2695;49.444;11.054;2023-05-07T14:11:30;4.85;;;3.38;;
5345;SDS011;2695;49.444;11.054;2023-05-07T14:14:02;4.13;;;2.60;;
5345;SDS011;2695;49.444;11.054;2023-05-07T14:16:30;3.23;;;2.93;;
5345;SDS011;2695;49.444;11.054;2023-05-07T14:18:58;3.10;;;2.77;;
5345;SDS011;2695;49.444;11.054;2023-05-07T14:21:26;4.13;;;2.90;;
5345;SDS011;2695;49.444;11.054;2023-05-07T14:23:54;3.90;;;3.50;;
5345;SDS011;2695;49.444;11.054;2023-05-07T14:26:22;4.40;;;3.43;;
5345;SDS011;2695;49.444;11.054;2023-05-07T14:28:50;3.10;;;2.70;;
5345;SDS011;2695;49.444;11.054;2023-05-07T14:31:20;4.67;;;2.90;;
5345;SDS011;2695;49.444;11.054;2023-05-07T14:33:48;3.60;;;3.00;;
5345;SDS011;2695;49.444;11.054;2023-05-07T14:36:16;4.00;;;3.30;;
5345;SDS011;2695;49.444;11.054;2023-05-07T14:38:46;2.85;;;2.60;;
5345;SDS011;2695;49.444;11.054;2023-05-07T14:41:14;3.90;;;3.20;;
5345;SDS011;2695;49.444;11.054;2023-05-07T14:43:42;4.20;;;3.40;;
5345;SDS011;2695;49.444;11.054;2023-05-07T14:46:16;3.28;;;2.95;;
5345;SDS011;2695;49.444;11.054;2023-05-07T14:48:46;4.22;;;3.38;;
5345;SDS011;2695;49.444;11.054;2023-05-07T14:51:14;7.45;;;3.35;;
5345;SDS011;2695;49.444;11.054;2023-05-07T14:53:42;3.90;;;2.80;;
5345;SDS011;2695;49.444;11.054;2023-05-07T14:56:10;7.65;;;3.78;;
5345;SDS011;2695;49.444;11.054;2023-05-07T14:58:38;3.57;;;3.27;;
5345;SDS011;2695;49.444;11.054;2023-05-07T15:01:06;4.07;;;3.30;;
5345;SDS011;2695;49.444;11.054;2023-05-07T15:03:34;4.93;;;4.17;;
5345;SDS011;2695;49.444;11.054;2023-05-07T15:06:03;4.60;;;3.83;;
5345;SDS011;2695;49.444;11.054;2023-05-07T15:08:31;5.40;;;4.57;;
5345;SDS011;2695;49.444;11.054;2023-05-07T15:10:59;4.27;;;3.87;;
5345;SDS011;2695;49.444;11.054;2023-05-07T15:13:28;7.57;;;4.33;;
5345;SDS011;2695;49.444;11.054;2023-05-07T15:15:56;3.77;;;3.33;;
5345;SDS011;2695;49.444;11.054;2023-05-07T15:18:24;7.67;;;4.70;;
5345;SDS011;2695;49.444;11.054;2023-05-07T15:20:52;5.50;;;3.33;;
5345;SDS011;2695;49.444;11.054;2023-05-07T15:23:21;4.60;;;3.77;;